Time;durP1;ratioP1;P1;durP2;ratioP2;P2;SDS_P1;SDS_P2;PMS_P1;PMS_P2;Temp;Humidity;BMP_temperature;BMP_pressure;BME280_temperature;BME280_humidity;BME280_pressure;Samples;Min_cycle;Max_cycle;Signal;HPM_P1;HPM_P2
2022/10/17 00:01:10;;;;;;;8.95;4.50;;;13.60;99.90;;;;;;5137368;27;20043;-78
2022/10/17 00:03:38;;;;;;;13.52;4.95;;;13.50;99.90;;;;;;5155804;27;20462;-78
2022/10/17 00:06:06;;;;;;;15.43;5.15;;;13.50;99.90;;;;;;5155730;27;20042;-78
2022/10/17 00:08:32;;;;;;;11.02;4.45;;;13.50;99.90;;;;;;5155940;27;20347;-79
2022/10/17 00:11:00;;;;;;;11.10;5.15;;;13.50;99.90;;;;;;5136661;27;20042;-79
2022/10/17 00:13:25;;;;;;;10.93;5.00;;;13.50;99.90;;;;;;5155845;27;20474;-78
2022/10/17 00:15:51;;;;;;;12.05;4.90;;;13.50;99.90;;;;;;5136590;27;20054;-78
2022/10/17 00:18:17;;;;;;;12.55;5.18;;;13.50;99.90;;;;;;5155743;27;20191;-78
2022/10/17 00:20:43;;;;;;;11.73;4.95;;;13.50;99.90;;;;;;5136831;27;20129;-78
2022/10/17 00:23:09;;;;;;;12.52;5.72;;;13.50;99.90;;;;;;5136703;27;20047;-78
2022/10/17 00:25:35;;;;;;;12.25;5.15;;;13.40;99.90;;;;;;5155617;27;20129;-79
2022/10/17 00:28:02;;;;;;;10.35;5.10;;;13.40;99.90;;;;;;5136735;27;20097;-80
2022/10/17 00:30:28;;;;;;;13.43;5.10;;;13.40;99.90;;;;;;5136622;27;20043;-78
2022/10/17 00:32:53;;;;;;;18.58;5.50;;;13.40;99.90;;;;;;5119206;27;20113;-78
2022/10/17 00:35:19;;;;;;;12.68;5.30;;;13.40;99.90;;;;;;5136600;27;20146;-79
2022/10/17 00:37:45;;;;;;;9.65;5.45;;;13.40;99.90;;;;;;5154929;27;20429;-79
2022/10/17 00:40:11;;;;;;;10.18;5.15;;;13.40;99.90;;;;;;5154790;27;20059;-78
2022/10/17 00:42:37;;;;;;;11.02;5.15;;;13.40;99.90;;;;;;5154732;27;20082;-80
2022/10/17 00:45:13;;;;;;;11.23;5.13;;;13.40;99.90;;;;;;5154906;27;20047;-78
2022/10/17 00:47:41;;;;;;;9.30;5.32;;;13.40;99.90;;;;;;5154966;27;20402;-78
2022/10/17 00:50:07;;;;;;;10.10;5.13;;;13.40;99.90;;;;;;5136825;27;20054;-78
2022/10/17 00:52:33;;;;;;;14.20;5.35;;;13.50;99.90;;;;;;5119885;27;20055;-79
2022/10/17 00:55:23;;;;;;;10.93;5.22;;;13.50;99.90;;;;;;5135840;27;20583;-78
2022/10/17 00:57:49;;;;;;;12.13;5.78;;;13.50;99.90;;;;;;5154407;27;20118;-79
2022/10/17 01:00:16;;;;;;;12.90;5.07;;;13.60;99.90;;;;;;5154585;27;20047;-78
2022/10/17 01:02:42;;;;;;;;;;;13.50;99.90;;;;;;5136412;27;20049;-78
2022/10/17 01:05:08;;;;;;;10.93;5.30;;;13.60;99.90;;;;;;5154759;27;19919;-78
2022/10/17 01:07:35;;;;;;;12.45;5.45;;;13.50;99.90;;;;;;5119256;27;20051;-76
2022/10/17 01:10:01;;;;;;;10.73;5.60;;;13.50;99.90;;;;;;5136362;27;20046;-77
2022/10/17 01:13:03;;;;;;;11.65;5.28;;;13.40;99.90;;;;;;5154176;27;20049;-77
2022/10/17 01:16:00;;;;;;;14.23;5.82;;;13.30;99.90;;;;;;5154635;27;20377;-78
2022/10/17 01:18:49;;;;;;;14.77;5.93;;;13.20;99.90;;;;;;5156199;27;20058;-78
2022/10/17 01:21:17;;;;;;;10.77;5.82;;;13.10;99.90;;;;;;5145475;27;20050;-78
2022/10/17 01:23:46;;;;;;;17.50;6.80;;;13.10;99.90;;;;;;5170383;27;20111;-76
2022/10/17 01:26:22;;;;;;;13.40;6.70;;;13.00;99.90;;;;;;5160818;27;20065;-78
2022/10/17 01:29:25;;;;;;;12.90;6.40;;;13.00;99.90;;;;;;5155304;27;20035;-78
2022/10/17 01:32:15;;;;;;;15.10;6.80;;;12.90;99.90;;;;;;5154287;27;20199;-78
2022/10/17 01:34:53;;;;;;;13.70;6.38;;;12.90;99.90;;;;;;5137145;27;20065;-78
2022/10/17 01:37:22;;;;;;;15.65;7.15;;;12.90;99.90;;;;;;5162832;27;20201;-78
2022/10/17 01:39:53;;;;;;;14.45;6.78;;;12.80;99.90;;;;;;5153563;27;20039;-78
2022/10/17 01:42:37;;;;;;;15.20;6.72;;;12.80;99.90;;;;;;5170834;27;20062;-79
2022/10/17 01:45:09;;;;;;;15.60;7.55;;;12.80;99.90;;;;;;5151893;27;20086;-78
2022/10/17 01:47:35;;;;;;;10.80;7.25;;;12.80;99.90;;;;;;5172742;27;20034;-77
2022/10/17 01:50:10;;;;;;;14.73;7.53;;;12.80;99.90;;;;;;5165164;27;20050;-76
2022/10/17 01:52:43;;;;;;;14.85;8.15;;;12.70;99.90;;;;;;5166438;27;20497;-77
2022/10/17 01:55:14;;;;;;;12.63;7.57;;;12.70;99.90;;;;;;5149299;27;20054;-77
2022/10/17 01:57:45;;;;;;;14.75;8.40;;;12.70;99.90;;;;;;5163556;27;20042;-78
2022/10/17 02:00:16;;;;;;;13.88;8.25;;;12.70;99.90;;;;;;5135813;27;20051;-77
2022/10/17 02:02:44;;;;;;;16.92;8.55;;;12.70;99.90;;;;;;5132854;27;20053;-78
2022/10/17 02:05:10;;;;;;;19.35;8.38;;;12.70;99.90;;;;;;5168370;27;20039;-78
2022/10/17 02:07:36;;;;;;;16.95;9.15;;;12.70;99.90;;;;;;5165910;27;20034;-77
2022/10/17 02:10:09;;;;;;;16.65;8.65;;;12.70;99.90;;;;;;5141076;27;20129;-78
2022/10/17 02:12:43;;;;;;;17.85;8.80;;;12.70;99.90;;;;;;5157018;27;20121;-78
2022/10/17 02:15:35;;;;;;;17.30;8.82;;;12.70;99.90;;;;;;5157033;27;20043;-78
2022/10/17 02:18:34;;;;;;;16.33;8.13;;;12.70;99.90;;;;;;5120321;27;20186;-78
2022/10/17 02:21:07;;;;;;;15.00;8.45;;;12.70;99.90;;;;;;5119249;27;20090;-79
2022/10/17 02:23:43;;;;;;;16.30;8.52;;;12.70;99.90;;;;;;5154907;27;20153;-77
2022/10/17 02:26:25;;;;;;;15.57;8.48;;;12.70;99.90;;;;;;5154121;27;20140;-78
2022/10/17 02:28:57;;;;;;;15.05;8.93;;;12.80;99.90;;;;;;5136985;27;20046;-78
2022/10/17 02:31:35;;;;;;;21.35;9.32;;;12.70;99.90;;;;;;5155421;27;20050;-77
2022/10/17 02:34:44;;;;;;;16.83;9.48;;;12.80;99.90;;;;;;5135840;27;20540;-78
2022/10/17 02:37:15;;;;;;;16.85;9.38;;;12.80;99.90;;;;;;5033023;28;20041;-79
2022/10/17 02:39:42;;;;;;;15.57;8.65;;;12.80;99.90;;;;;;5049819;28;20049;-78
2022/10/17 02:42:12;;;;;;;16.77;9.10;;;12.80;99.90;;;;;;5106263;27;20051;-79
2022/10/17 02:44:41;;;;;;;16.88;9.70;;;12.90;99.90;;;;;;5156610;27;20108;-79
2022/10/17 02:47:33;;;;;;;18.95;9.43;;;12.90;99.90;;;;;;5139660;27;20046;-78
2022/10/17 02:50:00;;;;;;;19.83;10.00;;;12.90;99.90;;;;;;5139384;27;20122;-78
2022/10/17 02:52:29;;;;;;;;;;;12.90;99.90;;;;;;5122435;27;20439;-78
2022/10/17 02:55:04;;;;;;;16.02;9.90;;;12.80;99.90;;;;;;5157794;27;19968;-78
2022/10/17 02:58:05;;;;;;;17.38;10.77;;;12.80;99.90;;;;;;5157158;27;20074;-79
2022/10/17 03:00:31;;;;;;;16.38;9.98;;;12.80;99.90;;;;;;5102555;27;20050;-79
2022/10/17 03:02:57;;;;;;;21.55;9.90;;;12.80;99.90;;;;;;5157225;27;20089;-79
2022/10/17 03:05:28;;;;;;;18.77;10.13;;;12.80;99.90;;;;;;5157946;27;20047;-79
2022/10/17 03:07:54;;;;;;;19.40;10.27;;;12.80;99.90;;;;;;5159604;27;20034;-79
2022/10/17 03:10:21;;;;;;;19.67;10.70;;;12.80;99.90;;;;;;5164191;27;20054;-78
2022/10/17 03:12:47;;;;;;;18.65;10.13;;;12.90;99.90;;;;;;5130513;27;20061;-78
2022/10/17 03:15:13;;;;;;;16.92;10.75;;;12.90;99.90;;;;;;5164881;27;20153;-78
2022/10/17 03:17:38;;;;;;;18.73;10.68;;;12.90;99.90;;;;;;5161582;27;20055;-79
2022/10/17 03:20:06;;;;;;;18.17;10.32;;;12.90;99.90;;;;;;5159402;27;20108;-79
2022/10/17 03:22:32;;;;;;;;;;;12.90;99.90;;;;;;5121958;27;20434;-79
2022/10/17 03:24:58;;;;;;;18.80;10.13;;;12.90;99.90;;;;;;5121948;27;19969;-79
2022/10/17 03:27:24;;;;;;;20.05;10.88;;;12.90;99.90;;;;;;5156809;27;20093;-80
2022/10/17 03:29:50;;;;;;;19.77;11.07;;;12.90;99.90;;;;;;5138160;27;20455;-77
2022/10/17 03:32:15;;;;;;;27.23;11.02;;;13.00;99.90;;;;;;5156818;27;20129;-78
2022/10/17 03:34:41;;;;;;;19.15;11.13;;;13.00;99.90;;;;;;5156375;27;20474;-76
2022/10/17 03:37:07;;;;;;;19.63;10.52;;;13.00;99.90;;;;;;5120171;27;20066;-78
2022/10/17 03:39:32;;;;;;;20.48;10.65;;;13.10;99.90;;;;;;5138499;27;20046;-78
2022/10/17 03:41:58;;;;;;;24.85;11.25;;;13.20;99.90;;;;;;5156222;27;20420;-77
2022/10/17 03:44:24;;;;;;;23.63;11.10;;;13.20;99.90;;;;;;5137770;27;20046;-79
2022/10/17 03:46:50;;;;;;;22.17;11.00;;;13.20;99.90;;;;;;5137508;27;20046;-79
2022/10/17 03:49:15;;;;;;;21.55;11.60;;;13.30;99.90;;;;;;5138028;27;20099;-78
2022/10/17 03:51:41;;;;;;;21.95;11.82;;;13.30;99.90;;;;;;5137978;27;20084;-78
2022/10/17 03:54:07;;;;;;;20.92;11.88;;;13.20;99.90;;;;;;5155603;27;20093;-78
2022/10/17 03:56:33;;;;;;;22.33;11.68;;;13.20;99.90;;;;;;5137191;27;20059;-78
2022/10/17 03:58:58;;;;;;;18.60;11.93;;;13.30;99.90;;;;;;5137211;27;20043;-78
2022/10/17 04:01:24;;;;;;;20.80;11.27;;;13.20;99.90;;;;;;5137631;27;20397;-79
2022/10/17 04:03:52;;;;;;;22.73;12.43;;;13.20;99.90;;;;;;5120510;27;20050;-78
2022/10/17 04:06:19;;;;;;;23.65;12.25;;;13.20;99.90;;;;;;5138549;27;20038;-78
2022/10/17 04:08:45;;;;;;;19.55;11.45;;;13.20;99.90;;;;;;5120152;27;20046;-78
2022/10/17 04:11:15;;;;;;;25.05;12.85;;;13.30;99.90;;;;;;5120476;27;20054;-78
2022/10/17 04:13:41;;;;;;;23.10;12.48;;;13.20;99.90;;;;;;5155753;27;20049;-80
2022/10/17 04:16:11;;;;;;;22.25;11.82;;;13.20;99.90;;;;;;5160063;27;20050;-79
2022/10/17 04:18:36;;;;;;;24.67;13.10;;;13.20;99.90;;;;;;5163821;27;20137;-77
2022/10/17 04:21:04;;;;;;;23.65;11.98;;;13.20;99.90;;;;;;5153310;27;20038;-79
2022/10/17 04:23:30;;;;;;;25.10;12.95;;;13.10;99.90;;;;;;5172759;27;20052;-78
2022/10/17 04:26:00;;;;;;;23.67;12.73;;;13.10;99.90;;;;;;5140094;27;20043;-77
2022/10/17 04:28:27;;;;;;;24.30;12.30;;;13.20;99.90;;;;;;5137450;27;20306;-78
2022/10/17 04:30:57;;;;;;;27.25;13.10;;;13.30;99.90;;;;;;5137034;27;20078;-78
2022/10/17 04:33:23;;;;;;;27.90;12.02;;;13.30;99.90;;;;;;5120159;27;20475;-77
2022/10/17 04:36:00;;;;;;;23.88;12.57;;;13.40;99.90;;;;;;5137538;27;20057;-77
2022/10/17 04:38:26;;;;;;;24.73;12.70;;;13.50;99.90;;;;;;5136926;27;20046;-78
2022/10/17 04:40:52;;;;;;;24.88;12.98;;;13.50;99.90;;;;;;5155773;27;20462;-78
2022/10/17 04:43:18;;;;;;;24.50;13.50;;;13.50;99.90;;;;;;5119292;27;20058;-77
2022/10/17 04:45:44;;;;;;;25.30;13.35;;;13.50;99.90;;;;;;5155234;27;20470;-79
2022/10/17 04:48:09;;;;;;;24.17;13.65;;;13.60;99.90;;;;;;5119774;27;20069;-78
2022/10/17 04:50:35;;;;;;;25.67;13.23;;;13.60;99.90;;;;;;5136173;27;20042;-78
2022/10/17 04:53:01;;;;;;;23.33;12.98;;;13.60;99.90;;;;;;5136831;27;20062;-80
2022/10/17 04:55:26;;;;;;;24.60;13.10;;;13.60;99.90;;;;;;5136421;27;20042;-78
2022/10/17 04:57:52;;;;;;;26.65;13.80;;;13.60;99.90;;;;;;5155251;27;20075;-78
2022/10/17 05:00:18;;;;;;;23.25;13.32;;;13.70;99.90;;;;;;5118959;27;20062;-79
2022/10/17 05:02:43;;;;;;;26.77;14.05;;;13.80;99.90;;;;;;5154576;27;20043;-76
2022/10/17 05:05:09;;;;;;;26.20;13.60;;;13.80;99.90;;;;;;5102256;27;20058;-77
2022/10/17 05:07:39;;;;;;;30.23;13.95;;;13.90;99.90;;;;;;5118464;27;20126;-76
2022/10/17 05:10:05;;;;;;;25.77;13.95;;;13.90;99.90;;;;;;5136401;27;20034;-79
2022/10/17 05:12:30;;;;;;;26.23;14.33;;;13.90;99.90;;;;;;5136285;27;20089;-76
2022/10/17 05:14:56;;;;;;;27.17;13.23;;;13.90;99.90;;;;;;5154532;27;20146;-77
2022/10/17 05:17:22;;;;;;;27.42;14.85;;;14.00;99.90;;;;;;5135652;27;20058;-77
2022/10/17 05:19:48;;;;;;;34.97;14.45;;;14.00;99.90;;;;;;5136280;27;20043;-78
2022/10/17 05:22:13;;;;;;;28.25;14.38;;;14.00;99.90;;;;;;5135826;27;20061;-77
2022/10/17 05:24:39;;;;;;;27.92;12.45;;;14.00;99.90;;;;;;5154653;27;20130;-75
2022/10/17 05:27:05;;;;;;;26.10;13.88;;;14.10;99.90;;;;;;5154035;27;20117;-77
2022/10/17 05:29:30;;;;;;;25.50;13.75;;;14.10;99.90;;;;;;5135735;27;20046;-75
2022/10/17 05:31:56;;;;;;;26.95;13.07;;;14.20;99.90;;;;;;5135742;27;20061;-77
2022/10/17 05:34:23;;;;;;;29.10;14.73;;;14.10;99.90;;;;;;5103624;27;20061;-76
2022/10/17 05:36:48;;;;;;;27.73;13.80;;;14.10;99.90;;;;;;5136035;27;20099;-77
2022/10/17 05:39:18;;;;;;;27.80;13.57;;;14.20;99.90;;;;;;5135210;27;20047;-75
2022/10/17 05:41:44;;;;;;;25.95;13.13;;;14.10;99.90;;;;;;5136688;27;20051;-76
2022/10/17 05:44:10;;;;;;;22.98;12.93;;;14.20;99.90;;;;;;5118273;27;20047;-79
2022/10/17 05:46:36;;;;;;;24.95;12.75;;;14.30;99.90;;;;;;5154039;27;20090;-74
2022/10/17 05:49:02;;;;;;;26.63;13.15;;;14.30;99.90;;;;;;5154928;27;20043;-75
2022/10/17 05:51:27;;;;;;;23.88;12.70;;;14.30;99.90;;;;;;5154053;27;20082;-76
2022/10/17 05:53:53;;;;;;;25.38;13.60;;;14.40;99.90;;;;;;5136031;27;20081;-76
2022/10/17 05:56:19;;;;;;;26.95;14.07;;;14.40;99.90;;;;;;5154544;27;20054;-75
2022/10/17 05:58:46;;;;;;;23.35;13.15;;;14.40;99.90;;;;;;5101483;27;20046;-75
2022/10/17 06:01:12;;;;;;;27.92;13.50;;;14.50;99.90;;;;;;5118902;27;20098;-81
2022/10/17 06:03:38;;;;;;;24.65;13.70;;;14.50;99.90;;;;;;5135834;27;20038;-75
2022/10/17 06:06:10;;;;;;;25.50;13.53;;;14.50;99.90;;;;;;5119214;27;20441;-76
2022/10/17 06:08:36;;;;;;;22.77;12.43;;;14.50;99.90;;;;;;5154737;27;20053;-76
2022/10/17 06:11:02;;;;;;;21.70;13.43;;;14.60;99.90;;;;;;5154044;27;20443;-76
2022/10/17 06:13:28;;;;;;;25.35;14.00;;;14.70;99.90;;;;;;5155918;27;20045;-77
2022/10/17 06:15:53;;;;;;;23.92;12.45;;;14.70;99.90;;;;;;5154412;27;20454;-78
2022/10/17 06:18:19;;;;;;;26.48;13.48;;;14.70;99.90;;;;;;5156851;27;20077;-77
2022/10/17 06:20:45;;;;;;;26.50;12.85;;;14.70;99.90;;;;;;5158755;27;20057;-78
2022/10/17 06:23:10;;;;;;;26.10;13.32;;;14.70;99.90;;;;;;5158665;27;20174;-76
2022/10/17 06:25:36;;;;;;;23.83;12.95;;;14.70;99.90;;;;;;5158599;27;20081;-76
2022/10/17 06:28:02;;;;;;;23.23;12.57;;;14.70;99.90;;;;;;5157539;27;20434;-75
2022/10/17 06:30:27;;;;;;;26.65;13.52;;;14.80;99.90;;;;;;5122183;27;20049;-77
2022/10/17 06:32:53;;;;;;;26.35;13.27;;;14.80;99.90;;;;;;5157883;27;20385;-77
2022/10/17 06:35:19;;;;;;;22.85;13.05;;;14.80;99.90;;;;;;5139157;27;20039;-78
2022/10/17 06:37:45;;;;;;;24.88;13.38;;;14.80;99.90;;;;;;5139609;27;20051;-78
2022/10/17 06:40:13;;;;;;;25.13;12.77;;;14.80;99.90;;;;;;5158012;27;20050;-78
2022/10/17 06:42:40;;;;;;;23.90;12.55;;;14.80;99.90;;;;;;5157529;27;20050;-77
2022/10/17 06:45:07;;;;;;;25.98;12.98;;;14.80;99.90;;;;;;5158267;27;20050;-78
2022/10/17 06:47:33;;;;;;;23.95;12.32;;;14.80;99.90;;;;;;5122160;27;20382;-77
2022/10/17 06:49:59;;;;;;;25.27;11.98;;;14.80;99.90;;;;;;5139904;27;20043;-78
2022/10/17 06:52:25;;;;;;;28.20;12.60;;;14.80;99.90;;;;;;5139425;27;20069;-76
2022/10/17 06:54:50;;;;;;;24.48;11.70;;;14.90;99.90;;;;;;5122381;27;20047;-78
2022/10/17 06:57:16;;;;;;;21.48;11.52;;;14.90;99.90;;;;;;5139538;27;20103;-77
2022/10/17 06:59:42;;;;;;;23.77;12.48;;;14.90;99.90;;;;;;5157272;27;20137;-78
2022/10/17 07:02:09;;;;;;;22.35;10.55;;;14.90;99.90;;;;;;5138954;27;20049;-76
2022/10/17 07:04:35;;;;;;;;;;;15.00;99.90;;;;;;5157804;27;20490;-78
2022/10/17 07:07:03;;;;;;;22.77;12.10;;;15.10;99.90;;;;;;5157473;27;19964;-78
2022/10/17 07:09:30;;;;;;;22.23;12.10;;;15.10;99.90;;;;;;5159704;27;20039;-79
2022/10/17 07:11:56;;;;;;;26.23;11.90;;;15.10;99.90;;;;;;5162099;27;20049;-78
2022/10/17 07:14:22;;;;;;;21.67;11.75;;;15.20;99.90;;;;;;5147750;27;20047;-80
2022/10/17 07:16:48;;;;;;;23.48;12.25;;;15.20;99.90;;;;;;5149860;27;20034;-77
2022/10/17 07:19:14;;;;;;;22.05;10.77;;;15.30;99.90;;;;;;5169584;27;20065;-79
2022/10/17 07:21:40;;;;;;;23.27;12.13;;;15.40;99.90;;;;;;5172494;27;20035;-78
2022/10/17 07:24:06;;;;;;;20.55;11.38;;;15.50;99.90;;;;;;5167932;27;20047;-76
2022/10/17 07:26:32;;;;;;;17.98;11.13;;;15.60;99.90;;;;;;5146365;27;20050;-80
2022/10/17 07:29:00;;;;;;;25.23;10.90;;;15.70;99.90;;;;;;5160543;27;20049;-77
2022/10/17 07:31:27;;;;;;;20.63;11.27;;;15.80;99.90;;;;;;5107862;27;20331;-79
2022/10/17 07:33:53;;;;;;;21.30;10.90;;;15.90;99.90;;;;;;5125103;27;20038;-79
2022/10/17 07:36:19;;;;;;;21.35;11.20;;;16.00;99.90;;;;;;5163646;27;20050;-79
2022/10/17 07:38:45;;;;;;;17.70;10.10;;;16.00;99.90;;;;;;5140549;27;20118;-79
2022/10/17 07:41:12;;;;;;;21.95;10.38;;;16.10;99.90;;;;;;5123293;27;20097;-80
2022/10/17 07:43:41;;;;;;;;;;;16.20;99.90;;;;;;5162024;27;20047;-79
2022/10/17 07:46:10;;;;;;;20.80;9.80;;;16.20;99.90;;;;;;5163436;27;19919;-78
2022/10/17 07:48:38;;;;;;;18.63;9.98;;;16.30;99.90;;;;;;5141543;27;20055;-79
2022/10/17 07:51:06;;;;;;;18.80;10.40;;;16.20;99.90;;;;;;5125069;27;20478;-78
2022/10/17 07:53:35;;;;;;;23.17;10.85;;;16.30;99.90;;;;;;5147679;27;20046;-80
2022/10/17 07:56:08;;;;;;;18.40;10.05;;;16.20;99.90;;;;;;5170552;27;20049;-81
2022/10/17 07:58:35;;;;;;;18.50;9.68;;;16.20;99.90;;;;;;5130582;27;20133;-79
2022/10/17 08:01:13;;;;;;;18.45;10.38;;;16.20;99.90;;;;;;5149047;27;20146;-79
2022/10/17 08:03:45;;;;;;;17.65;9.68;;;16.30;99.90;;;;;;5148871;27;20054;-77
2022/10/17 08:06:19;;;;;;;19.40;9.40;;;16.30;99.90;;;;;;5150161;27;20042;-79
2022/10/17 08:08:56;;;;;;;18.17;9.85;;;16.40;99.90;;;;;;5156788;27;20143;-78
2022/10/17 08:11:24;;;;;;;20.25;9.68;;;16.40;99.90;;;;;;5155183;27;20039;-79
2022/10/17 08:13:55;;;;;;;20.88;10.15;;;16.40;99.90;;;;;;5172270;27;20072;-77
2022/10/17 08:16:20;;;;;;;22.60;9.50;;;16.40;99.90;;;;;;5121829;27;20046;-78
2022/10/17 08:18:46;;;;;;;17.48;9.07;;;16.50;99.90;;;;;;5153217;27;20055;-80
2022/10/17 08:21:12;;;;;;;15.60;9.13;;;16.40;99.90;;;;;;5148281;27;20049;-78
2022/10/17 08:23:39;;;;;;;18.33;8.93;;;16.40;99.90;;;;;;5131106;27;20050;-81
2022/10/17 08:26:09;;;;;;;16.05;8.75;;;16.40;99.90;;;;;;5146545;27;20057;-78
2022/10/17 08:28:36;;;;;;;17.02;9.50;;;16.50;99.90;;;;;;5147140;27;20141;-77
2022/10/17 08:31:02;;;;;;;;;;;16.40;99.90;;;;;;5143381;27;20050;-79
2022/10/17 08:33:28;;;;;;;18.75;8.60;;;16.40;99.90;;;;;;5167246;27;19919;-77
2022/10/17 08:35:57;;;;;;;14.40;9.00;;;16.40;99.90;;;;;;5153411;27;20042;-81
2022/10/17 08:38:32;;;;;;;15.07;8.38;;;16.40;99.90;;;;;;5175650;27;20042;-79
2022/10/17 08:41:48;;;;;;;19.23;8.93;;;16.40;99.90;;;;;;5133717;27;20098;-79
2022/10/17 08:45:00;;;;;;;17.70;8.85;;;16.50;99.90;;;;;;5142662;27;20102;-79
2022/10/17 08:47:38;;;;;;;18.95;7.93;;;16.50;99.90;;;;;;5167121;27;20042;-77
2022/10/17 08:50:06;;;;;;;17.60;8.48;;;16.60;99.90;;;;;;5145456;27;20082;-78
2022/10/17 08:52:51;;;;;;;14.55;8.65;;;16.70;99.90;;;;;;5145183;27;20074;-77
2022/10/17 08:55:29;;;;;;;17.77;8.77;;;16.80;99.90;;;;;;5149357;27;20090;-77
2022/10/17 08:57:58;;;;;;;18.30;8.32;;;16.80;99.90;;;;;;5152891;27;20053;-76
2022/10/17 09:00:25;;;;;;;16.98;7.65;;;16.80;99.90;;;;;;5148332;27;20039;-77
2022/10/17 09:02:54;;;;;;;;;;;16.80;99.90;;;;;;5134838;27;20090;-76
2022/10/17 09:05:42;;;;;;;16.50;7.60;;;16.90;99.90;;;;;;5165825;27;19918;-77
2022/10/17 09:08:13;;;;;;;14.70;7.32;;;16.90;99.90;;;;;;5140353;27;20049;-75
2022/10/17 09:11:05;;;;;;;19.95;7.65;;;16.90;99.90;;;;;;5169593;27;20106;-77
2022/10/17 09:13:40;;;;;;;14.48;7.70;;;16.90;99.90;;;;;;5171992;27;20142;-77
2022/10/17 09:16:15;;;;;;;15.35;7.65;;;17.00;99.90;;;;;;5164844;27;20046;-76
2022/10/17 09:18:46;;;;;;;15.90;8.05;;;17.10;99.90;;;;;;5165372;27;20058;-78
2022/10/17 09:21:53;;;;;;;16.15;8.02;;;17.20;99.90;;;;;;5130378;27;20046;-79
2022/10/17 09:24:49;;;;;;;14.18;7.53;;;17.30;99.90;;;;;;5091339;27;20119;-75
2022/10/17 09:27:23;;;;;;;14.60;7.15;;;17.30;99.90;;;;;;5146436;27;20104;-77
2022/10/17 09:30:05;;;;;;;14.25;7.50;;;17.30;99.90;;;;;;5166113;27;20069;-76
2022/10/17 09:32:31;;;;;;;17.27;8.00;;;17.20;99.90;;;;;;5146851;27;20050;-78
2022/10/17 09:34:57;;;;;;;14.88;8.40;;;17.20;99.90;;;;;;5146364;27;20043;-78
2022/10/17 09:37:31;;;;;;;17.77;7.47;;;17.20;99.90;;;;;;5129704;27;20050;-79
2022/10/17 09:39:57;;;;;;;15.15;8.25;;;17.10;99.90;;;;;;5163851;27;20185;-74
2022/10/17 09:42:25;;;;;;;20.23;7.97;;;17.00;99.90;;;;;;5144877;27;20054;-77
2022/10/17 09:45:00;;;;;;;17.13;8.23;;;16.90;99.90;;;;;;5144542;27;20061;-74
2022/10/17 09:47:58;;;;;;;27.23;9.20;;;16.80;99.90;;;;;;5144583;27;20046;-75
2022/10/17 09:50:32;;;;;;;15.75;9.07;;;16.70;99.90;;;;;;5092595;27;20115;-76
2022/10/17 09:56:20;;;;;;;18.10;8.48;;;16.60;99.90;;;;;;5161802;27;20089;-78
2022/10/17 09:58:49;;;;;;;17.13;8.82;;;16.60;99.90;;;;;;5131283;27;20047;-77
2022/10/17 10:01:27;;;;;;;17.67;9.40;;;16.50;99.90;;;;;;5150168;27;20398;-77
2022/10/17 10:04:14;;;;;;;14.55;8.02;;;16.50;99.90;;;;;;5151076;27;20077;-80
2022/10/17 10:07:00;;;;;;;17.63;8.85;;;16.60;99.90;;;;;;5155392;27;20049;-77
2022/10/17 10:09:29;;;;;;;13.35;7.68;;;16.50;99.90;;;;;;5138549;27;20046;-80
2022/10/17 10:11:56;;;;;;;18.75;9.68;;;16.50;99.90;;;;;;5174664;27;20050;-77
2022/10/17 10:14:32;;;;;;;21.30;10.35;;;16.50;99.90;;;;;;5120337;27;20054;-80
2022/10/17 10:17:00;;;;;;;21.35;10.30;;;16.50;99.90;;;;;;5164304;27;20085;-77
2022/10/17 10:19:31;;;;;;;19.95;10.75;;;16.50;99.90;;;;;;5152225;27;20058;-76
2022/10/17 10:22:03;;;;;;;21.88;9.93;;;16.40;99.90;;;;;;5148465;27;20110;-78
2022/10/17 10:24:29;;;;;;;20.88;10.15;;;16.40;99.90;;;;;;5155076;27;20443;-77
2022/10/17 10:27:00;;;;;;;24.08;10.00;;;16.40;99.90;;;;;;5149075;27;20043;-75
2022/10/17 10:29:48;;;;;;;19.83;10.43;;;16.40;99.90;;;;;;5161999;27;20407;-75
2022/10/17 10:32:23;;;;;;;21.38;9.45;;;16.40;99.90;;;;;;5160984;27;20053;-76
2022/10/17 10:34:53;;;;;;;20.15;9.80;;;16.30;99.90;;;;;;5142186;27;20050;-74
2022/10/17 10:37:22;;;;;;;21.15;9.55;;;16.30;99.90;;;;;;5142224;27;20052;-74
2022/10/17 10:39:52;;;;;;;21.45;9.88;;;16.30;99.90;;;;;;5126765;27;20384;-79
2022/10/17 10:42:36;;;;;;;22.60;10.43;;;16.30;99.90;;;;;;5160403;27;20095;-77
2022/10/17 10:45:13;;;;;;;26.50;11.05;;;16.30;99.90;;;;;;5142867;27;20051;-75
2022/10/17 10:47:53;;;;;;;22.15;10.88;;;16.30;99.90;;;;;;5141406;27;20129;-74
2022/10/17 10:50:28;;;;;;;22.83;10.90;;;16.30;99.90;;;;;;5142032;27;20130;-77
2022/10/17 10:53:01;;;;;;;18.73;10.70;;;16.30;99.90;;;;;;5162537;27;20123;-75
2022/10/17 10:55:46;;;;;;;22.60;10.88;;;16.40;99.90;;;;;;5161048;27;20051;-75
2022/10/17 10:58:38;;;;;;;22.23;10.05;;;16.40;99.90;;;;;;5142182;27;20042;-76
2022/10/17 11:01:11;;;;;;;23.23;11.60;;;16.50;99.90;;;;;;5161976;27;20402;-78
2022/10/17 11:04:11;;;;;;;25.83;11.43;;;16.40;99.90;;;;;;5159558;27;20051;-76
2022/10/17 11:06:41;;;;;;;21.90;11.55;;;16.40;99.90;;;;;;5160603;27;20042;-75
2022/10/17 11:09:24;;;;;;;23.02;12.10;;;16.40;99.90;;;;;;5159584;27;20048;-76
2022/10/17 11:12:17;;;;;;;18.75;11.23;;;16.40;99.90;;;;;;5143522;27;20057;-76
2022/10/17 11:15:01;;;;;;;21.50;11.48;;;16.40;99.90;;;;;;5127933;27;20047;-75
2022/10/17 11:17:47;;;;;;;24.48;11.80;;;16.40;99.90;;;;;;5160530;27;20045;-74
2022/10/17 11:20:14;;;;;;;26.20;12.27;;;16.50;99.90;;;;;;5162316;27;20054;-76
2022/10/17 11:22:46;;;;;;;21.73;10.60;;;16.40;99.90;;;;;;5143747;27;20089;-75
2022/10/17 11:25:33;;;;;;;23.00;11.77;;;16.50;99.90;;;;;;5160022;27;20081;-76
2022/10/17 11:28:10;;;;;;;19.67;11.25;;;16.50;99.90;;;;;;5159997;27;20099;-76
2022/10/17 11:34:22;;;;;;;20.77;11.45;;;16.50;99.90;;;;;;5159303;27;20343;-76
2022/10/17 11:36:53;;;;;;;22.33;10.32;;;16.50;99.90;;;;;;5141256;27;20106;-83
2022/10/17 11:39:48;;;;;;;18.98;11.02;;;16.50;99.90;;;;;;5141005;27;20053;-76
2022/10/17 11:42:20;;;;;;;20.85;11.68;;;16.50;99.90;;;;;;5140734;27;20133;-76
2022/10/17 11:44:50;;;;;;;19.42;11.63;;;16.60;99.90;;;;;;5157806;27;20053;-76
2022/10/17 11:47:30;;;;;;;18.08;10.07;;;16.60;99.90;;;;;;5140503;27;20497;-77
2022/10/17 11:50:21;;;;;;;17.90;9.77;;;16.60;99.90;;;;;;5143851;27;20053;-76
2022/10/17 11:53:02;;;;;;;17.27;9.15;;;16.60;99.90;;;;;;5144060;27;20362;-78
2022/10/17 11:55:29;;;;;;;16.92;10.10;;;16.60;99.90;;;;;;5161448;27;20442;-77
2022/10/17 11:58:10;;;;;;;18.20;9.57;;;16.50;99.90;;;;;;5141431;27;20043;-74
2022/10/17 12:00:48;;;;;;;18.15;9.93;;;16.60;99.90;;;;;;5160040;27;20535;-79
2022/10/17 12:03:37;;;;;;;17.45;9.80;;;16.60;99.90;;;;;;5122970;27;20123;-76
2022/10/17 12:06:31;;;;;;;17.13;10.23;;;16.60;99.90;;;;;;5090806;27;20051;-76
2022/10/17 12:09:18;;;;;;;16.35;9.82;;;16.70;99.90;;;;;;5150138;27;20070;-79
2022/10/17 12:11:58;;;;;;;17.55;9.32;;;16.70;99.90;;;;;;5140725;27;20073;-75
2022/10/17 12:14:45;;;;;;;16.45;9.05;;;16.80;99.90;;;;;;5138538;27;20342;-77
2022/10/17 12:17:39;;;;;;;16.10;9.45;;;16.80;99.90;;;;;;5155830;27;20413;-77
2022/10/17 12:20:22;;;;;;;15.23;9.00;;;16.90;99.90;;;;;;5132537;27;20042;-81
2022/10/17 12:22:55;;;;;;;15.45;8.48;;;17.00;99.90;;;;;;5121519;27;20039;-78
2022/10/17 12:25:33;;;;;;;17.10;8.80;;;17.00;99.90;;;;;;5141693;27;20050;-79
2022/10/17 12:28:14;;;;;;;15.15;7.93;;;17.10;99.90;;;;;;5159635;27;20379;-80
2022/10/17 12:31:02;;;;;;;14.63;8.43;;;17.20;99.90;;;;;;5143331;27;20046;-82
2022/10/17 12:33:36;;;;;;;12.95;7.85;;;17.20;99.90;;;;;;5110438;27;20078;-78
2022/10/17 12:36:20;;;;;;;11.05;6.95;;;17.30;99.90;;;;;;5161130;27;20042;-79
2022/10/17 12:38:48;;;;;;;12.43;6.80;;;17.30;99.90;;;;;;5127121;27;20034;-80
2022/10/17 12:41:15;;;;;;;10.98;6.80;;;17.40;99.90;;;;;;5147131;27;20106;-81
2022/10/17 12:43:51;;;;;;;10.68;6.50;;;17.40;99.90;;;;;;5162148;27;20047;-77
2022/10/17 12:46:52;;;;;;;12.63;6.72;;;17.50;99.90;;;;;;5164686;27;20045;-79
2022/10/17 12:49:39;;;;;;;11.90;6.20;;;17.50;99.90;;;;;;5118322;27;20050;-75
2022/10/17 12:52:17;;;;;;;13.50;6.60;;;17.50;99.90;;;;;;5149732;27;20462;-79
2022/10/17 12:54:51;;;;;;;14.50;6.57;;;17.50;99.90;;;;;;5165702;27;20046;-77
2022/10/17 12:57:50;;;;;;;11.88;7.35;;;17.40;99.90;;;;;;5163486;27;20053;-81
2022/10/17 13:00:21;;;;;;;14.07;6.78;;;17.40;99.90;;;;;;5146104;27;20039;-79
2022/10/17 13:02:48;;;;;;;12.45;6.72;;;17.30;99.90;;;;;;5146071;27;20102;-81
2022/10/17 13:05:28;;;;;;;13.65;7.15;;;17.40;99.90;;;;;;5142115;27;20556;-79